EGPF Airport Information

Runway Information
Runway 05 Length 8720 ft width 151 ft
Elevation 26 ft Threshold 0 ft Heading 46
Runway 23 Length 8720 ft Width 151 ft
Elevation 21 ft Threshold 980 ft Heading 226
Runway 09 Length 3622 ft width 151 ft
Elevation 17 ft Threshold 203 ft Heading 91
Runway 27 Length 3622 ft Width 151 ft
Elevation 23 ft Threshold 0 ft Heading 271
Airport Frequencies
Type ACC Name SHANWICK O Frequency 120.35 MHZ
Type APP Name APP Frequency 119.1 MHZ
Type ATIS Name ATIS Frequency 129.575 MHZ
Type GND Name GND Frequency 121.7 MHZ
Type TWR Name TWR Frequency 118.8 MHZ
Airport Navaids
Type NDB Name Glasgow Frequency 331 KHZ
Type VOR-DME Name Glasgow Frequency 115400 KHZ
Airport Weather Information & NOTAM
ADDS - METARS form results

(1148 UTC 25 February 2020)
Data provider http://aviationweather.gov/metar/data/
 
METAR text: EGPF 251120Z AUTO 23012KT 9999 SCT015 BKN020 BKN028 05/03 Q0992
Conditions at: EGPF (GLASGOW AIRPORT , GB) observed 1120 UTC 25 February 2020
Temperature: 5.0°C (41°F)
Dewpoint: 3.0°C (37°F) [RH = 87%]
Pressure (altimeter): 29.29 inches Hg (992.0 mb)
Winds: from the SW (230 degrees) at 14 MPH (12 knots; 6.2 m/s)
Visibility: 6 or more miles (10+ km)
Ceiling: 2000 feet AGL
Clouds: scattered clouds at 1500 feet AGL
broken clouds at 2000 feet AGL
broken clouds at 2800 feet AGL
Weather: no significant weather observed at this time

METAR text: EGPF 251050Z AUTO 25011KT 9999 SCT033 SCT041 04/02 Q0992
Conditions at: EGPF (GLASGOW AIRPORT , GB) observed 1050 UTC 25 February 2020
Temperature: 4.0°C (39°F)
Dewpoint: 2.0°C (36°F) [RH = 87%]
Pressure (altimeter): 29.29 inches Hg (992.0 mb)
Winds: from the WSW (250 degrees) at 13 MPH (11 knots; 5.7 m/s)
Visibility: 6 or more miles (10+ km)
Ceiling: at least 12,000 feet AGL
Clouds: scattered clouds at 3300 feet AGL
scattered clouds at 4100 feet AGL
Weather: no significant weather observed at this time

Forecast for: EGPF (GLASGOW AIRPORT , GB)
Text: TAF EGPF 251104Z 2512/2612 26009KT 9999 SCT012
Forecast period: 1200 UTC 25 February 2020 to 1200 UTC 26 February 2020
Forecast type: FROM: standard forecast or significant change
Winds: from the W (260 degrees) at 10 MPH (9 knots; 4.6 m/s)
Visibility: 6 or more miles 10+ km)
Ceiling: at least 12,000 feet AGL
Clouds: scattered clouds at 1200 feet AGL
Weather: no significant weather forecast for this period
Text: TEMPO 2512/2521 6000 SHRASN BKN010CB
Forecast period: 1200 to 2100 UTC 25 February 2020
Forecast type: TEMPORARY: The following changes expected for less than half the time period
Visibility: 4 miles (6 km)
Ceiling: 1000 feet AGL
Clouds: broken clouds at 1000 feet AGL
Weather: SHRA SHSN  (rain showers, snow showers)
Text: PROB30
Forecast period: 0800 to 1200 UTC 26 February 2020
Forecast type: TEMPORARY: The following changes expected for less than half the time period
Visibility: 4 miles (6 km)
Ceiling: unknown
Clouds: missing
Weather: SHRA SHSN  (rain showers, snow showers)